Wenatchee, WA

9:11 PM PDT on September 16, 2014 (GMT -0700)
Bowers | Change Station
CLOSE
Current Station
Airport
Location: Ellensburg,
Elevation: 1762 ft
Nearby Weather Stations

Elev 1762 ft 47.03 °N, 120.53 °W | Updated 1 hour ago

Partly Cloudy
Partly Cloudy
72 °F
Feels Like 72 °F
N
16
Wind Variable Wind from NW

Today
High -- | Low -- °F
--% Chance of Precip.
Yesterday
High -- | Low -- °F
Precip. -- in
6:40 AM 7:11 PM
Last Quarter, 39% visible
Pressure 29.79 in
Visibility 10.0 miles
Clouds Clear
Dew Point 50 °F
Humidity 46%
Rainfall 0.00 in
Snow Depth 0 in , 0 in , 0 in
UV 0 out of 12
Pollen 2.90 out of 12
Air Quality Not available.
Flu Activity Not available.
METAR KELN 170253Z AUTO 32014KT 10SM CLR 22/10 A2981 RMK AO2 SLP086 T02220100 53003

More Conditions Fewer Conditions

Pressure 29.79 in
Visibility 10.0 miles
Clouds Clear
Dew Point 50 °F
Humidity 46%
Rainfall 0.00 in
Snow Depth 0 in , 0 in , 0 in
UV 0 out of 12
Pollen 2.90 out of 12
Air Quality Not available.
Flu Activity Not available.
METAR KELN 170253Z AUTO 32014KT 10SM CLR 22/10 A2981 RMK AO2 SLP086 T02220100 53003

More Conditions Fewer Conditions

10-Day Weather Forecast

Almanac

Astronomy

Sep. 16, 2014 Rise Set
Actual Time 6:40 AM PDT 7:11 PM PDT
Civil Twilight 6:09 AM PDT 7:41 PM PDT
Nautical Twilight 5:32 AM PDT 8:18 PM PDT
Astronomical Twilight 4:54 AM PDT 8:56 PM PDT
Moon No Moon Rise 2:56 PM PDT (9/16)
Length of Visible Light 13h 32m
Length of Day
12h 30m
Tomorrow will be 3m 23s shorter.
Last Quarter, 39% of the Moon is Illuminated
Sep 17
Last Quarter
Sep 24
New
Oct 1
First Quarter
Oct 8
Full
Oct 15
Last Quarter

Today's Extremes

State Highs State Lows

Community

WunderPhotos

Upload Photos

1,753,965 photos uploaded!

Nearby

Snow Depth

Station Depth Elevation
Alpine Meadows 0 in 3500 ft
Stevens Pass 0 in 4070 ft
Lost Horse 0 in 5000 ft
Meadows Pass 0 in 3500 ft
Dungeness 0 in 4100 ft

Earthquake Activity

City Distance Mag. Time & Date
No recent earthquake activity has been reported nearby.
Minimum magnitude displayed is 2.5.

Coastal Water Temperatures

Place Temperature
No Stations Reporting

Nearby Weather Stations